Time;durP1;ratioP1;P1;durP2;ratioP2;P2;SDS_P1;SDS_P2;PMS_P1;PMS_P2;Temp;Humidity;BMP_temperature;BMP_pressure;BME280_temperature;BME280_humidity;BME280_pressure;Samples;Min_cycle;Max_cycle;Signal;HPM_P1;HPM_P2
2023/08/26 00:00:28;;;;;;;7.15;5.40;;;;;;;20.60;49.52;100530.44;5062577;28;20523;-70
2023/08/26 00:02:56;;;;;;;8.38;5.95;;;;;;;20.59;49.50;100534.28;5063417;28;20053;-70
2023/08/26 00:05:24;;;;;;;9.00;6.60;;;;;;;20.59;49.51;100533.44;5065665;28;20045;-70
2023/08/26 00:07:52;;;;;;;8.18;5.55;;;;;;;20.58;49.48;100534.47;5067488;28;20095;-69
2023/08/26 00:10:20;;;;;;;9.02;6.10;;;;;;;20.57;49.59;100527.19;5064826;28;20059;-70
2023/08/26 00:12:50;;;;;;;8.88;6.35;;;;;;;20.58;49.51;100534.47;5062578;28;20503;-70
2023/08/26 00:15:18;;;;;;;8.45;5.90;;;;;;;20.53;49.45;100532.28;5067209;28;20338;-70
2023/08/26 00:17:45;;;;;;;9.05;5.70;;;;;;;20.54;49.32;100535.94;5065863;28;20056;-69
2023/08/26 00:20:14;;;;;;;8.85;5.80;;;;;;;20.52;49.45;100538.94;5079483;28;20063;-70
2023/08/26 00:22:42;;;;;;;8.40;5.40;;;;;;;20.51;48.88;100540.00;5052502;28;20048;-70
2023/08/26 00:25:10;;;;;;;9.77;5.60;;;;;;;20.51;49.08;100540.00;5038665;28;20160;-70
2023/08/26 00:27:38;;;;;;;8.38;5.75;;;;;;;20.50;49.21;100534.63;5039870;28;20041;-69
2023/08/26 00:30:08;;;;;;;7.60;5.50;;;;;;;20.51;49.07;100539.13;5035301;28;20133;-70
2023/08/26 00:32:36;;;;;;;8.27;6.07;;;;;;;20.47;49.48;100543.38;5037138;28;20045;-69
2023/08/26 00:35:05;;;;;;;8.77;6.10;;;;;;;20.47;49.57;100543.38;5038518;28;20087;-70
2023/08/26 00:37:33;;;;;;;8.07;6.00;;;;;;;20.44;49.44;100541.91;5042093;28;20139;-70
2023/08/26 00:40:01;;;;;;;8.43;5.85;;;;;;;20.43;49.33;100554.06;5032210;28;20041;-69
2023/08/26 00:42:29;;;;;;;6.60;5.07;;;;;;;20.41;49.10;100550.63;5035358;28;20045;-69
2023/08/26 00:44:57;;;;;;;8.00;5.57;;;;;;;20.37;49.11;100536.28;5039587;28;20061;-69
2023/08/26 00:47:26;;;;;;;8.93;5.47;;;;;;;20.38;48.93;100531.59;5035306;28;20156;-69
2023/08/26 00:49:55;;;;;;;7.32;5.55;;;;;;;20.33;49.26;100525.78;5039698;28;20168;-70
2023/08/26 00:52:23;;;;;;;6.78;5.07;;;;;;;20.30;48.63;100538.19;5029167;28;20069;-70
2023/08/26 00:54:51;;;;;;;7.30;5.45;;;;;;;20.28;49.04;100536.69;5034369;28;20174;-69
2023/08/26 00:57:20;;;;;;;7.13;5.25;;;;;;;20.27;48.59;100543.31;5035190;28;20137;-69
2023/08/26 00:59:49;;;;;;;9.63;5.53;;;;;;;20.25;48.70;100535.16;5044362;28;20692;-69
2023/08/26 01:02:17;;;;;;;8.07;5.43;;;;;;;20.24;48.82;100543.69;5046443;28;20119;-69
2023/08/26 01:04:47;;;;;;;7.70;4.88;;;;;;;20.22;48.69;100537.47;5046882;28;20219;-70
2023/08/26 01:07:14;;;;;;;6.80;4.65;;;;;;;20.19;48.95;100541.56;5047130;28;20044;-69
2023/08/26 01:09:42;;;;;;;6.60;4.97;;;;;;;20.18;48.91;100548.16;5045780;28;20065;-69
2023/08/26 01:12:19;;;;;;;7.75;5.45;;;;;;;20.20;48.23;100559.09;5037805;28;20046;-70
2023/08/26 01:14:56;;;;;;;8.30;5.68;;;;;;;20.18;48.33;100573.19;5043931;28;20507;-70
2023/08/26 01:17:25;;;;;;;6.15;5.03;;;;;;;20.15;47.81;100556.03;5044516;28;20053;-69
2023/08/26 01:19:58;;;;;;;6.35;4.50;;;;;;;20.13;46.82;100566.50;5046220;28;20384;-70
2023/08/26 01:22:27;;;;;;;;;;;;;;;19.80;47.90;100578.19;5047442;28;20045;-69
2023/08/26 01:24:57;;;;;;;5.50;3.85;;;;;;;20.01;46.76;100578.19;5047807;28;20400;-70
2023/08/26 01:27:25;;;;;;;6.72;4.35;;;;;;;19.99;46.70;100579.44;5047108;28;20065;-69
2023/08/26 01:29:53;;;;;;;6.38;4.03;;;;;;;19.93;46.84;100581.13;5045615;28;20080;-69
2023/08/26 01:32:29;;;;;;;6.15;3.72;;;;;;;19.92;46.49;100582.19;5046853;28;20140;-69
2023/08/26 01:34:59;;;;;;;6.68;4.78;;;;;;;19.87;46.70;100581.88;5046410;28;20040;-69
2023/08/26 01:37:29;;;;;;;5.18;3.78;;;;;;;19.83;46.30;100591.69;5039979;28;20088;-69
2023/08/26 01:40:03;;;;;;;5.10;3.70;;;;;;;19.81;46.21;100592.94;5041944;28;20044;-69
2023/08/26 01:42:35;;;;;;;4.35;3.33;;;;;;;19.78;45.61;100598.91;5036965;28;20080;-69
2023/08/26 01:45:05;;;;;;;5.60;3.65;;;;;;;19.72;45.39;100608.03;5045858;28;20408;-69
2023/08/26 01:47:33;;;;;;;5.25;3.28;;;;;;;19.69;45.39;100600.13;5041425;28;20593;-69
2023/08/26 01:50:00;;;;;;;5.45;3.47;;;;;;;19.63;45.19;100602.63;5042116;28;20053;-69
2023/08/26 01:52:28;;;;;;;5.50;3.72;;;;;;;19.59;45.26;100597.69;5036726;28;20500;-69
2023/08/26 01:54:56;;;;;;;5.95;3.35;;;;;;;19.56;45.33;100604.47;5037800;28;20065;-69
2023/08/26 01:57:25;;;;;;;4.88;3.40;;;;;;;19.54;44.74;100614.91;5039964;28;20072;-69
2023/08/26 01:59:53;;;;;;;4.63;3.10;;;;;;;19.48;44.74;100603.75;5047767;28;20385;-69
2023/08/26 02:02:21;;;;;;;5.82;3.35;;;;;;;19.46;44.62;100614.22;5048947;28;20095;-69
2023/08/26 02:04:49;;;;;;;4.70;3.00;;;;;;;19.41;44.31;100614.78;5048064;28;20508;-70
2023/08/26 02:07:18;;;;;;;4.35;2.42;;;;;;;19.38;44.52;100614.34;5048630;28;20045;-69
2023/08/26 02:09:46;;;;;;;4.32;2.55;;;;;;;19.33;44.30;100614.06;5046232;28;20087;-69
2023/08/26 02:12:14;;;;;;;4.18;2.40;;;;;;;19.29;44.23;100608.06;5042155;28;20045;-69
2023/08/26 02:14:43;;;;;;;4.25;2.58;;;;;;;19.25;44.12;100607.59;5038083;28;20495;-70
2023/08/26 02:17:11;;;;;;;4.60;2.58;;;;;;;19.20;43.81;100607.34;5058717;28;20075;-69
2023/08/26 02:19:39;;;;;;;4.57;2.20;;;;;;;19.17;43.82;100610.47;5037350;28;20132;-69
2023/08/26 02:22:08;;;;;;;3.35;2.22;;;;;;;19.13;44.12;100617.44;5044942;28;20042;-69
2023/08/26 02:24:39;;;;;;;5.57;2.33;;;;;;;19.08;43.94;100613.56;5036846;28;20136;-69
2023/08/26 02:27:08;;;;;;;2.85;1.98;;;;;;;19.06;43.90;100629.53;5040118;28;20302;-69
2023/08/26 02:29:36;;;;;;;4.65;2.28;;;;;;;19.03;43.67;100624.38;5042882;28;20076;-70
2023/08/26 02:32:06;;;;;;;3.85;2.20;;;;;;;19.03;43.49;100635.47;5052550;28;20069;-70
2023/08/26 02:34:34;;;;;;;5.50;2.63;;;;;;;18.97;43.97;100633.47;5041853;28;20464;-70
2023/08/26 02:37:02;;;;;;;4.22;2.10;;;;;;;18.95;43.55;100638.38;5039519;28;20128;-70
2023/08/26 02:39:30;;;;;;;3.55;1.85;;;;;;;18.92;43.95;100644.28;5041873;28;20052;-70
2023/08/26 02:41:58;;;;;;;3.08;1.98;;;;;;;18.89;43.86;100645.53;5038888;28;20766;-71
2023/08/26 02:44:27;;;;;;;3.35;1.95;;;;;;;18.87;43.64;100650.44;5033962;28;20132;-70
2023/08/26 02:46:55;;;;;;;3.72;1.67;;;;;;;18.85;43.94;100663.63;5039389;28;20043;-70
2023/08/26 02:49:24;;;;;;;3.35;2.00;;;;;;;18.85;43.70;100663.63;5059705;28;20574;-70
2023/08/26 02:51:52;;;;;;;2.70;1.60;;;;;;;18.83;43.77;100665.72;5046480;28;20045;-70
2023/08/26 02:54:20;;;;;;;3.53;1.60;;;;;;;18.81;43.85;100657.59;5039857;28;20049;-70
2023/08/26 02:56:48;;;;;;;3.60;1.90;;;;;;;18.80;43.54;100666.13;5036679;28;20039;-70
2023/08/26 02:59:17;;;;;;;4.25;1.55;;;;;;;18.79;43.53;100669.94;5040418;28;20053;-70
2023/08/26 03:01:45;;;;;;;3.38;1.70;;;;;;;18.78;43.61;100673.78;5044356;28;20076;-70
2023/08/26 03:04:13;;;;;;;2.92;1.50;;;;;;;18.77;43.39;100670.13;5043625;28;20479;-70
2023/08/26 03:06:42;;;;;;;3.50;1.70;;;;;;;18.78;43.22;100674.63;5045182;28;20037;-70
2023/08/26 03:09:11;;;;;;;3.35;1.70;;;;;;;18.76;43.61;100667.56;5034195;28;20049;-70
2023/08/26 03:11:41;;;;;;;4.22;1.60;;;;;;;18.74;43.42;100676.06;5035437;28;20064;-70
2023/08/26 03:14:08;;;;;;;3.05;1.55;;;;;;;18.73;43.20;100668.78;5041235;28;20049;-70
2023/08/26 03:16:36;;;;;;;2.65;1.40;;;;;;;18.73;43.56;100676.25;5041582;28;20465;-70
2023/08/26 03:19:04;;;;;;;3.28;1.45;;;;;;;18.71;43.45;100668.16;5036662;28;20075;-70
2023/08/26 03:21:32;;;;;;;2.97;1.35;;;;;;;18.70;43.15;100669.19;5045823;28;20041;-70
2023/08/26 03:24:02;;;;;;;3.58;1.23;;;;;;;18.71;42.83;100668.16;5047568;28;20132;-70
2023/08/26 03:26:30;;;;;;;2.35;1.48;;;;;;;18.69;43.28;100672.16;5047637;28;20049;-70
2023/08/26 03:28:57;;;;;;;3.30;1.40;;;;;;;18.67;43.32;100665.94;5046889;28;20110;-70
2023/08/26 03:31:26;;;;;;;2.28;1.35;;;;;;;18.65;42.82;100668.88;5049076;28;20041;-69
2023/08/26 03:33:54;;;;;;;2.60;1.38;;;;;;;18.64;43.06;100672.72;5043751;28;20049;-70
2023/08/26 03:36:22;;;;;;;3.55;1.40;;;;;;;18.62;42.77;100672.06;5048349;28;20867;-70
2023/08/26 03:38:50;;;;;;;2.53;1.33;;;;;;;18.61;42.79;100667.56;5046831;28;20052;-70
2023/08/26 03:41:19;;;;;;;3.40;1.30;;;;;;;18.62;42.55;100671.19;5046468;28;20049;-70
2023/08/26 03:43:47;;;;;;;2.33;1.30;;;;;;;18.58;42.81;100673.47;5034471;28;20128;-70
2023/08/26 03:46:15;;;;;;;3.75;1.60;;;;;;;18.57;42.66;100677.28;5048936;28;20667;-70
2023/08/26 03:48:43;;;;;;;3.35;1.42;;;;;;;18.55;42.68;100679.44;5058219;28;20053;-69
2023/08/26 03:51:11;;;;;;;3.65;1.52;;;;;;;18.52;42.65;100677.88;5048360;28;20139;-70
2023/08/26 03:53:39;;;;;;;3.72;1.60;;;;;;;18.51;42.76;100687.25;5042817;28;20128;-70
2023/08/26 03:56:07;;;;;;;3.85;1.90;;;;;;;18.50;42.83;100693.84;5042712;28;20064;-70
2023/08/26 03:58:36;;;;;;;3.97;1.45;;;;;;;18.51;42.56;100700.25;5042401;28;20511;-69
2023/08/26 04:01:05;;;;;;;2.75;1.45;;;;;;;18.49;42.71;100697.66;5045288;28;20037;-70
2023/08/26 04:03:33;;;;;;;4.15;1.90;;;;;;;18.47;42.58;100694.16;5038049;28;20100;-69
2023/08/26 04:06:03;;;;;;;4.35;1.90;;;;;;;18.46;42.59;100700.78;5040021;28;20041;-70
2023/08/26 04:08:32;;;;;;;5.13;2.17;;;;;;;18.44;42.72;100691.81;5038791;28;20052;-70
2023/08/26 04:11:01;;;;;;;4.18;1.90;;;;;;;18.44;43.00;100702.03;5039458;28;20396;-70
2023/08/26 04:13:30;;;;;;;3.78;2.00;;;;;;;18.42;43.00;100693.88;5044548;28;20049;-70
2023/08/26 04:16:02;;;;;;;5.45;2.30;;;;;;;18.42;42.75;100695.81;5037999;28;20531;-69
2023/08/26 04:18:31;;;;;;;4.57;2.30;;;;;;;18.39;42.51;100693.44;5034410;28;20041;-70
2023/08/26 04:21:00;;;;;;;4.95;1.83;;;;;;;18.38;42.57;100694.47;5036698;28;20505;-70
2023/08/26 04:23:30;;;;;;;4.63;1.67;;;;;;;18.36;42.59;100685.50;5041350;28;20055;-70
2023/08/26 04:26:00;;;;;;;4.03;2.08;;;;;;;18.36;42.31;100682.72;5036514;28;20136;-69
2023/08/26 04:28:29;;;;;;;3.63;1.70;;;;;;;18.33;42.74;100688.63;5059482;28;20038;-70
2023/08/26 04:30:59;;;;;;;5.32;1.90;;;;;;;18.34;42.63;100688.44;5036275;28;20045;-70
2023/08/26 04:33:27;;;;;;;3.85;1.65;;;;;;;18.30;42.45;100683.47;5036506;28;20111;-70
2023/08/26 04:35:55;;;;;;;4.85;1.73;;;;;;;18.29;42.71;100685.38;5038151;28;20037;-70
2023/08/26 04:38:23;;;;;;;3.35;1.90;;;;;;;18.28;42.18;100680.03;5036944;28;20115;-70
2023/08/26 04:40:51;;;;;;;6.30;2.25;;;;;;;18.25;42.39;100681.25;5043475;28;20136;-69
2023/08/26 04:43:18;;;;;;;4.00;1.80;;;;;;;18.25;42.76;100697.00;5045846;28;20102;-69
2023/08/26 04:45:47;;;;;;;4.75;1.85;;;;;;;18.22;42.28;100697.41;5047589;28;20566;-70
2023/08/26 04:48:18;;;;;;;3.65;1.60;;;;;;;18.24;42.35;100698.06;5044727;28;20046;-69
2023/08/26 04:50:46;;;;;;;3.28;1.40;;;;;;;18.20;42.14;100705.03;5043228;28;20048;-70
2023/08/26 04:53:14;;;;;;;3.60;1.35;;;;;;;18.19;42.42;100711.63;5042228;28;20057;-70
2023/08/26 04:55:42;;;;;;;2.60;1.50;;;;;;;18.18;42.13;100709.91;5051645;28;20048;-70
2023/08/26 04:58:09;;;;;;;2.78;1.30;;;;;;;18.15;42.03;100716.66;5037719;28;20065;-70
2023/08/26 05:00:41;;;;;;;3.38;1.52;;;;;;;18.17;41.39;100716.50;5042837;28;20139;-70
2023/08/26 05:03:10;;;;;;;3.00;1.30;;;;;;;18.11;42.12;100720.88;5045726;28;20048;-69
2023/08/26 05:05:42;;;;;;;2.40;1.25;;;;;;;18.14;41.97;100724.13;5040227;28;20069;-70
2023/08/26 05:08:10;;;;;;;3.13;1.40;;;;;;;18.08;42.16;100716.56;5050371;28;20136;-70
2023/08/26 05:10:40;;;;;;;3.92;1.50;;;;;;;18.08;42.13;100722.09;5040891;28;20058;-69
2023/08/26 05:13:08;;;;;;;3.40;1.30;;;;;;;18.06;41.70;100715.88;5035340;28;20053;-69
2023/08/26 05:15:36;;;;;;;4.05;1.33;;;;;;;18.04;41.95;100722.69;5046726;28;20538;-70
2023/08/26 05:18:05;;;;;;;3.92;1.65;;;;;;;18.04;42.25;100729.06;5037958;28;20045;-69
2023/08/26 05:20:33;;;;;;;3.70;1.40;;;;;;;18.01;42.22;100723.91;5039587;28;20504;-70
2023/08/26 05:23:02;;;;;;;3.70;1.52;;;;;;;18.02;42.28;100730.31;5044356;28;20121;-70
2023/08/26 05:25:30;;;;;;;3.22;1.33;;;;;;;17.99;42.08;100730.66;5051297;28;20051;-70
2023/08/26 05:27:58;;;;;;;3.22;1.40;;;;;;;17.99;42.38;100730.66;5045624;28;20048;-70
2023/08/26 05:30:27;;;;;;;2.90;1.23;;;;;;;17.98;41.74;100729.78;5045740;28;20041;-70
2023/08/26 05:32:55;;;;;;;2.42;1.23;;;;;;;17.98;41.88;100732.56;5050783;28;20041;-70
2023/08/26 05:35:24;;;;;;;3.25;1.48;;;;;;;17.98;41.86;100734.47;5049936;28;20107;-70
2023/08/26 05:37:52;;;;;;;4.03;1.40;;;;;;;17.98;41.87;100738.09;5049551;28;20077;-70
2023/08/26 05:40:26;;;;;;;2.90;1.40;;;;;;;18.00;41.55;100735.16;5042576;28;20049;-70
2023/08/26 05:42:56;;;;;;;2.00;1.27;;;;;;;17.96;42.15;100731.91;5046447;28;20038;-70
2023/08/26 05:45:25;;;;;;;3.45;1.40;;;;;;;17.97;42.16;100747.50;5042197;28;20053;-70
2023/08/26 05:47:53;;;;;;;2.30;1.17;;;;;;;17.97;41.87;100741.94;5045746;28;20057;-70
2023/08/26 05:50:22;;;;;;;2.75;1.10;;;;;;;17.98;42.06;100745.53;5046323;28;20154;-70
2023/08/26 05:52:50;;;;;;;3.20;1.27;;;;;;;17.97;42.30;100738.31;5039375;28;20077;-70
2023/08/26 05:55:21;;;;;;;3.60;1.30;;;;;;;17.98;41.88;100735.34;5039380;28;20041;-70
2023/08/26 05:57:49;;;;;;;3.72;1.50;;;;;;;17.98;41.83;100742.78;5057595;28;20068;-70
2023/08/26 06:00:17;;;;;;;3.42;1.40;;;;;;;17.98;41.74;100740.88;5040169;28;20163;-70
2023/08/26 06:02:48;;;;;;;3.05;1.20;;;;;;;17.98;42.03;100740.00;5034377;28;20038;-70
2023/08/26 06:05:17;;;;;;;3.75;1.30;;;;;;;17.98;41.79;100737.25;5038260;28;20049;-69
2023/08/26 06:07:47;;;;;;;2.15;1.20;;;;;;;17.98;41.45;100746.41;5050853;28;20053;-71
2023/08/26 06:10:16;;;;;;;2.70;0.98;;;;;;;17.98;41.75;100737.25;5043928;28;20036;-69
2023/08/26 06:12:45;;;;;;;2.35;1.20;;;;;;;18.01;41.70;100740.50;5043051;28;20120;-70
2023/08/26 06:15:15;;;;;;;2.53;1.10;;;;;;;17.97;41.41;100744.72;5047588;28;20443;-70
2023/08/26 06:17:43;;;;;;;1.80;1.00;;;;;;;18.00;41.55;100741.56;5039180;28;20099;-74
2023/08/26 06:20:16;;;;;;;1.80;0.80;;;;;;;17.99;41.11;100744.50;5039448;28;20051;-70
2023/08/26 06:22:45;;;;;;;1.58;0.88;;;;;;;18.02;41.58;100755.22;5038530;28;20408;-70
2023/08/26 06:25:13;;;;;;;1.88;0.90;;;;;;;18.01;41.13;100754.34;5040474;28;20408;-69
2023/08/26 06:27:41;;;;;;;2.67;0.90;;;;;;;18.01;41.79;100748.81;5039360;28;20107;-69
2023/08/26 06:30:11;;;;;;;1.70;0.93;;;;;;;18.05;41.38;100752.09;5037240;28;20136;-69
2023/08/26 06:32:39;;;;;;;1.98;1.00;;;;;;;18.03;41.41;100760.59;5040966;28;20045;-69
2023/08/26 06:35:09;;;;;;;3.05;1.05;;;;;;;18.04;41.66;100767.84;5044171;28;20358;-69
2023/08/26 06:37:38;;;;;;;3.17;1.00;;;;;;;18.03;41.55;100762.50;5047827;28;20049;-69
2023/08/26 06:40:07;;;;;;;2.40;1.10;;;;;;;18.05;41.10;100754.88;5042592;28;20145;-69
2023/08/26 06:42:35;;;;;;;1.98;0.93;;;;;;;18.05;41.44;100752.09;5043091;28;20128;-70
2023/08/26 06:45:08;;;;;;;2.17;1.02;;;;;;;18.03;41.67;100751.41;5039184;28;20045;-70
2023/08/26 06:47:39;;;;;;;1.77;0.88;;;;;;;18.07;41.63;100747.22;5042353;28;20037;-69
2023/08/26 06:50:08;;;;;;;1.42;0.80;;;;;;;18.06;41.50;100751.88;5042347;28;20049;-70
2023/08/26 06:52:38;;;;;;;2.63;1.10;;;;;;;18.08;41.60;100749.78;5045495;28;20049;-69
2023/08/26 06:55:08;;;;;;;3.42;1.00;;;;;;;18.11;41.68;100752.22;5043734;28;20132;-70
2023/08/26 06:57:37;;;;;;;2.30;0.98;;;;;;;18.14;42.15;100754.59;5037794;28;20056;-70
2023/08/26 07:00:08;;;;;;;2.45;1.00;;;;;;;18.20;42.22;100741.06;5037512;28;20998;-69
2023/08/26 07:02:37;;;;;;;2.85;1.00;;;;;;;18.25;42.64;100744.13;5041153;28;20045;-70
2023/08/26 07:05:06;;;;;;;1.75;1.15;;;;;;;18.32;41.98;100739.53;5042395;28;20052;-69
2023/08/26 07:07:36;;;;;;;2.05;1.00;;;;;;;18.41;42.46;100743.94;5035828;28;20052;-69
2023/08/26 07:10:04;;;;;;;1.50;0.93;;;;;;;18.49;42.24;100755.00;5035270;28;20118;-69
2023/08/26 07:12:33;;;;;;;2.67;1.02;;;;;;;18.56;41.87;100736.56;5040556;28;20451;-70
2023/08/26 07:15:01;;;;;;;2.35;1.08;;;;;;;18.67;41.91;100741.63;5043385;28;20072;-70
2023/08/26 07:17:29;;;;;;;2.20;0.98;;;;;;;18.78;42.15;100743.09;5035730;28;20566;-69
2023/08/26 07:19:58;;;;;;;2.38;0.98;;;;;;;18.89;41.95;100749.00;5041944;28;20071;-70
2023/08/26 07:22:26;;;;;;;2.22;0.90;;;;;;;18.97;42.16;100734.16;5045753;28;20041;-69
2023/08/26 07:24:57;;;;;;;1.98;0.98;;;;;;;19.08;42.42;100741.16;5038657;28;20527;-70
2023/08/26 07:27:26;;;;;;;1.73;0.90;;;;;;;19.20;41.60;100747.94;5046979;28;20045;-69
2023/08/26 07:29:54;;;;;;;2.50;1.20;;;;;;;19.28;41.49;100739.53;5040532;28;20049;-70
2023/08/26 07:32:22;;;;;;;2.05;1.13;;;;;;;19.38;41.24;100742.00;5040532;28;20037;-70
2023/08/26 07:34:51;;;;;;;3.45;1.02;;;;;;;19.50;41.24;100746.84;5047075;28;20037;-70
2023/08/26 07:37:20;;;;;;;2.65;0.95;;;;;;;19.58;41.45;100741.19;5043103;28;20069;-70
2023/08/26 07:39:49;;;;;;;3.15;0.93;;;;;;;19.67;40.90;100739.13;5046415;28;20095;-69
2023/08/26 07:42:17;;;;;;;2.30;0.98;;;;;;;19.76;40.88;100735.19;5045469;28;20067;-69
2023/08/26 07:44:45;;;;;;;1.98;0.90;;;;;;;19.86;40.44;100740.41;5042582;28;20048;-69
2023/08/26 07:47:13;;;;;;;3.78;0.98;;;;;;;19.93;40.09;100742.22;5044618;28;20582;-69
2023/08/26 07:49:41;;;;;;;2.35;0.82;;;;;;;20.01;40.35;100733.75;5041346;28;20106;-72
2023/08/26 07:52:10;;;;;;;3.75;1.00;;;;;;;20.09;39.84;100737.44;5043701;28;20060;-71
2023/08/26 07:54:39;;;;;;;2.95;0.90;;;;;;;20.17;39.68;100734.53;5041910;28;20148;-70
2023/08/26 07:57:07;;;;;;;1.58;0.80;;;;;;;20.22;39.67;100734.78;5040615;28;20115;-70
2023/08/26 07:59:35;;;;;;;2.65;0.90;;;;;;;20.28;39.60;100734.81;5039805;28;20041;-70
2023/08/26 08:02:03;;;;;;;2.13;0.98;;;;;;;20.35;39.42;100730.22;5045023;28;20492;-70
2023/08/26 08:04:32;;;;;;;2.00;0.85;;;;;;;20.43;39.15;100731.13;5041918;28;20119;-74
2023/08/26 08:06:59;;;;;;;1.52;1.00;;;;;;;20.49;38.63;100730.31;5043953;28;20061;-70
2023/08/26 08:09:27;;;;;;;4.43;1.10;;;;;;;20.54;38.70;100736.09;5039672;28;20048;-71
2023/08/26 08:12:01;;;;;;;2.10;0.82;;;;;;;20.61;37.66;100735.13;5043266;28;20416;-71
2023/08/26 08:14:31;;;;;;;3.05;1.45;;;;;;;20.66;37.89;100737.31;5061210;28;20044;-71
2023/08/26 08:16:59;;;;;;;2.33;0.80;;;;;;;20.70;37.92;100747.81;5040953;28;20136;-71
2023/08/26 08:19:27;;;;;;;2.40;0.80;;;;;;;20.74;37.92;100737.16;5038941;28;20484;-71
2023/08/26 08:21:55;;;;;;;2.28;1.13;;;;;;;20.78;38.00;100735.66;5047623;28;20041;-71
2023/08/26 08:24:23;;;;;;;2.20;0.90;;;;;;;20.83;37.77;100735.91;5043318;28;20049;-71
2023/08/26 08:26:51;;;;;;;2.40;0.82;;;;;;;20.87;37.87;100741.91;5046887;28;20043;-71
2023/08/26 08:29:20;;;;;;;2.17;0.98;;;;;;;20.93;37.65;100750.31;5045882;28;20124;-71
2023/08/26 08:31:48;;;;;;;2.45;0.80;;;;;;;20.97;37.67;100747.97;5046515;28;20236;-71
2023/08/26 08:34:16;;;;;;;2.33;1.00;;;;;;;21.01;37.21;100757.66;5044681;28;20521;-71
2023/08/26 08:36:43;;;;;;;1.50;0.90;;;;;;;21.06;37.34;100755.94;5047438;28;20048;-71
2023/08/26 08:39:11;;;;;;;1.73;0.90;;;;;;;21.09;36.88;100743.56;5045750;28;20140;-71
2023/08/26 08:41:42;;;;;;;1.80;0.70;;;;;;;21.14;36.43;100750.22;5049493;28;20040;-71
2023/08/26 08:44:13;;;;;;;1.10;0.55;;;;;;;21.17;36.85;100750.88;5049327;28;20468;-71
2023/08/26 08:46:45;;;;;;;2.13;0.90;;;;;;;21.19;36.13;100743.19;5043702;28;20057;-71
2023/08/26 08:49:13;;;;;;;2.88;0.95;;;;;;;21.19;36.67;100741.22;5045862;28;20136;-71
2023/08/26 08:51:41;;;;;;;1.65;0.90;;;;;;;21.25;36.33;100757.13;5049448;28;20601;-71
2023/08/26 08:54:10;;;;;;;1.63;0.90;;;;;;;21.28;36.23;100756.72;5050202;28;20041;-71
2023/08/26 08:56:38;;;;;;;2.28;0.85;;;;;;;21.31;36.18;100756.31;5051172;28;20116;-71
2023/08/26 08:59:07;;;;;;;3.08;0.73;;;;;;;21.35;36.12;100768.78;5052153;28;20130;-71
2023/08/26 09:01:35;;;;;;;1.20;0.68;;;;;;;21.38;35.96;100753.56;5050894;28;20131;-71
2023/08/26 09:04:07;;;;;;;2.40;0.70;;;;;;;21.43;35.08;100753.81;5048162;28;20045;-71
2023/08/26 09:06:35;;;;;;;1.90;0.80;;;;;;;21.42;36.02;100752.09;5050487;28;20045;-71
2023/08/26 09:09:10;;;;;;;1.17;0.73;;;;;;;21.50;35.47;100751.91;5049750;28;20045;-71
2023/08/26 09:11:50;;;;;;;2.33;0.80;;;;;;;21.51;35.76;100750.84;5044434;28;20045;-71
2023/08/26 09:14:18;;;;;;;1.83;0.90;;;;;;;21.55;35.51;100748.47;5049459;28;20036;-71
2023/08/26 09:16:46;;;;;;;1.63;0.80;;;;;;;21.58;35.30;100748.94;5046304;28;20497;-71
2023/08/26 09:19:15;;;;;;;1.35;0.80;;;;;;;21.65;34.95;100758.16;5043993;28;20219;-71
2023/08/26 09:21:45;;;;;;;1.50;0.80;;;;;;;21.67;35.22;100749.59;5050372;28;20045;-71
2023/08/26 09:24:14;;;;;;;1.55;0.80;;;;;;;21.70;35.00;100757.53;5052086;28;20069;-71
2023/08/26 09:26:42;;;;;;;1.05;0.70;;;;;;;21.74;34.77;100758.84;5041986;28;20140;-71
2023/08/26 09:29:12;;;;;;;2.03;0.77;;;;;;;21.78;34.45;100746.19;5049514;28;20053;-71
2023/08/26 09:31:47;;;;;;;1.65;0.73;;;;;;;21.83;34.09;100755.66;5049096;28;20044;-71
2023/08/26 09:34:28;;;;;;;2.67;1.00;;;;;;;21.85;34.00;100747.06;5047718;28;20044;-71
2023/08/26 09:36:56;;;;;;;1.83;0.75;;;;;;;21.85;34.53;100747.06;5048758;28;20049;-71
2023/08/26 09:39:24;;;;;;;1.67;0.82;;;;;;;21.88;34.29;100758.66;5050014;28;20045;-71
2023/08/26 09:41:55;;;;;;;1.60;0.70;;;;;;;21.95;33.75;100755.91;5060340;22;20053;-80
2023/08/26 09:44:23;;;;;;;1.52;0.55;;;;;;;21.93;34.32;100746.91;5038939;28;20068;-81
2023/08/26 09:46:56;;;;;;;1.67;0.77;;;;;;;22.02;33.56;100748.41;5022663;28;20038;-81
2023/08/26 09:49:25;;;;;;;2.15;0.90;;;;;;;22.05;34.27;100747.13;5019995;28;20054;-81
2023/08/26 09:51:54;;;;;;;0.77;0.60;;;;;;;22.07;33.95;100748.66;5027563;28;20049;-81
2023/08/26 09:54:22;;;;;;;0.90;0.60;;;;;;;22.10;33.70;100750.13;5040514;28;20077;-81
2023/08/26 09:56:51;;;;;;;2.25;0.68;;;;;;;22.13;33.89;100744.13;5035566;28;20109;-81
2023/08/26 09:59:19;;;;;;;2.47;0.80;;;;;;;22.15;33.51;100756.81;5040128;28;20572;-81
2023/08/26 10:01:47;;;;;;;1.92;0.75;;;;;;;22.20;33.75;100747.78;5042675;28;20497;-80
2023/08/26 10:04:23;;;;;;;1.65;0.80;;;;;;;22.25;32.67;100750.81;5043068;28;20120;-81
2023/08/26 10:06:58;;;;;;;1.70;0.70;;;;;;;22.29;32.99;100752.09;5038108;28;20073;-81
2023/08/26 10:09:30;;;;;;;1.70;0.60;;;;;;;22.32;33.56;100757.25;5037521;28;20500;-81
2023/08/26 10:12:02;;;;;;;1.08;0.70;;;;;;;22.35;33.33;100753.16;5034113;28;20049;-80
2023/08/26 10:14:33;;;;;;;1.05;0.70;;;;;;;22.37;33.47;100763.03;5042200;28;20053;-80
2023/08/26 10:17:02;;;;;;;0.77;0.60;;;;;;;22.42;33.07;100754.03;5036382;28;20048;-80
2023/08/26 10:19:32;;;;;;;1.45;0.70;;;;;;;22.47;33.15;100759.81;5034791;28;20049;-80
2023/08/26 10:22:02;;;;;;;2.13;0.75;;;;;;;22.51;33.09;100753.56;5041075;28;20102;-79
2023/08/26 10:24:31;;;;;;;0.98;0.60;;;;;;;22.54;32.90;100753.19;5047349;28;20113;-81
2023/08/26 10:26:58;;;;;;;0.95;0.55;;;;;;;22.60;32.64;100755.09;5043626;28;20033;-81
2023/08/26 10:29:27;;;;;;;1.17;0.57;;;;;;;22.66;32.66;100752.53;5040809;28;20041;-81
2023/08/26 10:31:56;;;;;;;1.25;0.73;;;;;;;22.69;32.95;100747.38;5044915;28;20042;-81
2023/08/26 10:34:31;;;;;;;1.67;0.82;;;;;;;22.76;31.94;100758.50;5033536;28;20046;-80
2023/08/26 10:37:01;;;;;;;1.75;0.70;;;;;;;22.80;32.25;100754.22;5039049;28;20124;-81
2023/08/26 10:39:29;;;;;;;1.60;0.70;;;;;;;22.83;32.18;100757.44;5044809;28;20512;-80
2023/08/26 10:42:11;;;;;;;1.15;0.65;;;;;;;22.87;31.46;100750.34;5038701;28;20044;-80
2023/08/26 10:44:40;;;;;;;1.10;0.63;;;;;;;22.86;31.97;100743.03;5025739;28;20048;-80
2023/08/26 10:47:09;;;;;;;1.30;0.70;;;;;;;22.91;32.06;100745.19;5035924;28;20041;-80
2023/08/26 10:49:37;;;;;;;1.05;0.63;;;;;;;22.93;31.74;100752.25;5028666;28;20128;-80
2023/08/26 10:52:15;;;;;;;1.10;0.65;;;;;;;22.99;31.12;100758.91;5036458;28;20149;-80
2023/08/26 10:54:44;;;;;;;1.15;0.60;;;;;;;22.97;32.13;100745.19;5030220;28;20068;-81
2023/08/26 10:57:12;;;;;;;1.00;0.55;;;;;;;23.01;31.66;100738.06;5037449;28;20137;-80
2023/08/26 10:59:42;;;;;;;1.48;0.50;;;;;;;23.06;31.63;100753.31;5035932;28;20041;-80
2023/08/26 11:02:12;;;;;;;1.05;0.47;;;;;;;23.06;31.46;100756.09;5040664;28;20112;-81
2023/08/26 11:04:44;;;;;;;1.02;0.70;;;;;;;23.09;31.22;100753.72;5035873;28;20559;-81
2023/08/26 11:07:18;;;;;;;1.80;0.70;;;;;;;23.11;31.23;100745.97;5030280;28;20045;-81
2023/08/26 11:09:46;;;;;;;1.38;0.68;;;;;;;23.10;31.86;100749.84;5027636;28;20450;-80
2023/08/26 11:12:28;;;;;;;1.45;0.50;;;;;;;23.14;31.24;100739.97;5043225;28;20099;-81
2023/08/26 11:15:03;;;;;;;0.77;0.50;;;;;;;23.14;30.53;100737.19;5027784;28;20057;-80
2023/08/26 11:17:31;;;;;;;1.40;0.70;;;;;;;23.15;31.30;100740.84;5037779;28;20508;-81
2023/08/26 11:20:18;;;;;;;1.00;0.60;;;;;;;23.15;31.30;100733.31;5033511;28;20064;-81
2023/08/26 11:22:48;;;;;;;0.98;0.50;;;;;;;23.18;31.21;100729.25;5035053;28;20116;-81
2023/08/26 11:25:17;;;;;;;0.95;0.57;;;;;;;23.19;31.23;100739.34;5034432;28;20034;-80
2023/08/26 11:27:45;;;;;;;1.23;0.60;;;;;;;23.19;31.07;100742.97;5034525;28;20104;-80
2023/08/26 11:30:14;;;;;;;1.40;0.70;;;;;;;23.23;30.96;100733.09;5030597;28;20057;-81
2023/08/26 11:32:42;;;;;;;1.63;0.60;;;;;;;23.23;31.29;100733.09;5032570;28;20492;-81